sensor_id;sensor_type;location;lat;lon;timestamp;pressure;altitude;pressure_sealevel;temperature;humidity
70458;BME280;57919;56.194;95.716;2023-04-20T00:05:11;100042.38;;;-3.28;56.23
70458;BME280;57919;56.194;95.716;2023-04-20T00:15:13;100050.75;;;-3.04;57.02
70458;BME280;57919;56.194;95.716;2023-04-20T00:25:15;100056.72;;;-2.95;57.33
70458;BME280;57919;56.194;95.716;2023-04-20T00:35:17;100065.28;;;-2.82;58.45
70458;BME280;57919;56.194;95.716;2023-04-20T00:45:19;100059.00;;;-2.76;58.45
70458;BME280;57919;56.194;95.716;2023-04-20T00:55:22;100049.78;;;-2.58;58.24
70458;BME280;57919;56.194;95.716;2023-04-20T01:05:25;100056.59;;;-2.47;58.20
70458;BME280;57919;56.194;95.716;2023-04-20T01:15:27;100051.72;;;-2.26;58.23
70458;BME280;57919;56.194;95.716;2023-04-20T01:25:29;100046.19;;;-2.17;57.66
70458;BME280;57919;56.194;95.716;2023-04-20T01:35:31;100051.03;;;-1.98;57.40
70458;BME280;57919;56.194;95.716;2023-04-20T01:45:33;100051.53;;;-1.82;56.61
70458;BME280;57919;56.194;95.716;2023-04-20T01:55:35;100041.97;;;-1.21;54.58
70458;BME280;57919;56.194;95.716;2023-04-20T02:05:37;100042.28;;;-1.01;53.10
70458;BME280;57919;56.194;95.716;2023-04-20T02:15:39;100038.31;;;-0.55;51.26
70458;BME280;57919;56.194;95.716;2023-04-20T02:25:40;100040.00;;;-0.52;51.80
70458;BME280;57919;56.194;95.716;2023-04-20T02:35:42;100030.22;;;-0.22;50.80
70458;BME280;57919;56.194;95.716;2023-04-20T02:45:45;100047.56;;;-0.11;50.82
70458;BME280;57919;56.194;95.716;2023-04-20T02:55:47;100057.81;;;0.02;50.51
70458;BME280;57919;56.194;95.716;2023-04-20T03:06:05;100051.28;;;-0.16;50.67
70458;BME280;57919;56.194;95.716;2023-04-20T03:16:08;100042.38;;;0.13;49.84
70458;BME280;57919;56.194;95.716;2023-04-20T03:26:15;100039.84;;;-0.18;49.17
70458;BME280;57919;56.194;95.716;2023-04-20T03:36:37;100038.59;;;0.20;49.18
70458;BME280;57919;56.194;95.716;2023-04-20T03:46:39;100039.38;;;0.50;48.57
70458;BME280;57919;56.194;95.716;2023-04-20T03:56:41;100025.50;;;0.14;50.34
70458;BME280;57919;56.194;95.716;2023-04-20T04:06:48;100024.06;;;0.81;48.58
70458;BME280;57919;56.194;95.716;2023-04-20T04:16:50;100020.41;;;1.32;46.58
70458;BME280;57919;56.194;95.716;2023-04-20T04:26:52;100017.69;;;1.10;46.88
70458;BME280;57919;56.194;95.716;2023-04-20T04:36:58;100012.19;;;1.15;47.22
70458;BME280;57919;56.194;95.716;2023-04-20T04:47:12;100029.72;;;-0.07;53.71
70458;BME280;57919;56.194;95.716;2023-04-20T04:57:15;100015.94;;;-0.48;56.26
70458;BME280;57919;56.194;95.716;2023-04-20T05:07:17;100005.75;;;-0.06;55.44
70458;BME280;57919;56.194;95.716;2023-04-20T05:17:18;100014.47;;;0.26;56.31
70458;BME280;57919;56.194;95.716;2023-04-20T05:27:20;100000.31;;;1.23;54.94
70458;BME280;57919;56.194;95.716;2023-04-20T05:37:22;99992.84;;;2.00;54.04
70458;BME280;57919;56.194;95.716;2023-04-20T05:47:24;99976.63;;;2.67;52.37
70458;BME280;57919;56.194;95.716;2023-04-20T05:57:27;99965.97;;;3.06;50.19
70458;BME280;57919;56.194;95.716;2023-04-20T06:07:30;99959.25;;;2.77;48.47
70458;BME280;57919;56.194;95.716;2023-04-20T06:17:34;99985.63;;;0.88;50.61
70458;BME280;57919;56.194;95.716;2023-04-20T06:27:36;99976.63;;;0.43;56.13
70458;BME280;57919;56.194;95.716;2023-04-20T06:37:38;99961.63;;;1.80;52.46
70458;BME280;57919;56.194;95.716;2023-04-20T06:47:41;99953.78;;;2.19;47.12
70458;BME280;57919;56.194;95.716;2023-04-20T06:57:42;99962.34;;;1.40;48.13
70458;BME280;57919;56.194;95.716;2023-04-20T07:07:45;99954.25;;;2.49;46.92
70458;BME280;57919;56.194;95.716;2023-04-20T07:17:47;99946.66;;;3.00;45.05
70458;BME280;57919;56.194;95.716;2023-04-20T07:27:48;99952.19;;;2.76;45.67
70458;BME280;57919;56.194;95.716;2023-04-20T07:37:51;99947.19;;;2.48;44.86
70458;BME280;57919;56.194;95.716;2023-04-20T07:47:52;99942.47;;;1.92;45.71
70458;BME280;57919;56.194;95.716;2023-04-20T07:57:56;99949.63;;;1.25;48.92
70458;BME280;57919;56.194;95.716;2023-04-20T08:07:58;99955.09;;;1.44;49.40
70458;BME280;57919;56.194;95.716;2023-04-20T08:18:00;99952.63;;;1.83;45.20
70458;BME280;57919;56.194;95.716;2023-04-20T08:28:02;99956.63;;;2.15;45.52
70458;BME280;57919;56.194;95.716;2023-04-20T08:38:04;99963.91;;;1.46;47.19
70458;BME280;57919;56.194;95.716;2023-04-20T08:48:07;99968.97;;;1.07;50.98
70458;BME280;57919;56.194;95.716;2023-04-20T08:58:10;99956.63;;;1.04;52.60
70458;BME280;57919;56.194;95.716;2023-04-20T09:08:12;99946.13;;;1.68;47.12
70458;BME280;57919;56.194;95.716;2023-04-20T09:18:14;99954.88;;;1.72;44.55
70458;BME280;57919;56.194;95.716;2023-04-20T09:28:17;99959.81;;;1.37;45.27
70458;BME280;57919;56.194;95.716;2023-04-20T09:38:24;99954.53;;;1.36;44.57
70458;BME280;57919;56.194;95.716;2023-04-20T09:48:30;99948.78;;;1.46;44.43
70458;BME280;57919;56.194;95.716;2023-04-20T09:58:33;99948.47;;;1.54;43.87
70458;BME280;57919;56.194;95.716;2023-04-20T10:08:39;99941.28;;;1.78;41.93
70458;BME280;57919;56.194;95.716;2023-04-20T10:18:55;99952.84;;;1.33;38.85
70458;BME280;57919;56.194;95.716;2023-04-20T10:28:57;99955.81;;;1.25;39.17
70458;BME280;57919;56.194;95.716;2023-04-20T10:39:14;99966.00;;;1.14;39.90
70458;BME280;57919;56.194;95.716;2023-04-20T10:49:17;99953.22;;;1.24;40.29
70458;BME280;57919;56.194;95.716;2023-04-20T10:59:21;99958.75;;;1.41;40.61
70458;BME280;57919;56.194;95.716;2023-04-20T11:09:25;99971.06;;;1.22;42.01
70458;BME280;57919;56.194;95.716;2023-04-20T11:19:33;99966.53;;;1.24;42.70
70458;BME280;57919;56.194;95.716;2023-04-20T11:29:38;99956.81;;;1.23;42.56
70458;BME280;57919;56.194;95.716;2023-04-20T11:39:40;99976.09;;;1.06;43.85
70458;BME280;57919;56.194;95.716;2023-04-20T11:49:42;99976.03;;;0.84;44.80
70458;BME280;57919;56.194;95.716;2023-04-20T11:59:43;99982.28;;;0.58;46.68
70458;BME280;57919;56.194;95.716;2023-04-20T12:09:48;99991.84;;;0.39;47.30
70458;BME280;57919;56.194;95.716;2023-04-20T12:19:50;99995.47;;;0.10;48.49
70458;BME280;57919;56.194;95.716;2023-04-20T12:29:52;100005.84;;;-0.37;48.94
70458;BME280;57919;56.194;95.716;2023-04-20T12:39:55;100006.47;;;-0.56;49.88
70458;BME280;57919;56.194;95.716;2023-04-20T12:49:58;100018.44;;;-0.71;49.93
70458;BME280;57919;56.194;95.716;2023-04-20T12:59:59;100040.63;;;-1.05;50.37
70458;BME280;57919;56.194;95.716;2023-04-20T13:10:07;100045.53;;;-1.22;50.39
70458;BME280;57919;56.194;95.716;2023-04-20T13:20:10;100065.81;;;-1.19;52.90
70458;BME280;57919;56.194;95.716;2023-04-20T13:30:12;100079.03;;;-1.50;57.29
70458;BME280;57919;56.194;95.716;2023-04-20T13:40:14;100088.16;;;-1.98;61.77
70458;BME280;57919;56.194;95.716;2023-04-20T13:50:16;100109.00;;;-2.21;61.24
70458;BME280;57919;56.194;95.716;2023-04-20T14:00:18;100115.56;;;-2.39;60.96
70458;BME280;57919;56.194;95.716;2023-04-20T14:10:21;100118.41;;;-2.48;60.85
70458;BME280;57919;56.194;95.716;2023-04-20T14:20:23;100118.63;;;-2.58;62.32
70458;BME280;57919;56.194;95.716;2023-04-20T14:30:25;100120.59;;;-2.68;63.31
70458;BME280;57919;56.194;95.716;2023-04-20T14:40:27;100101.72;;;-2.95;65.58
70458;BME280;57919;56.194;95.716;2023-04-20T14:50:29;100114.09;;;-2.97;65.86
70458;BME280;57919;56.194;95.716;2023-04-20T15:00:32;100109.38;;;-2.81;66.62
70458;BME280;57919;56.194;95.716;2023-04-20T15:10:34;100123.91;;;-3.02;67.06
70458;BME280;57919;56.194;95.716;2023-04-20T15:20:36;100125.94;;;-3.16;68.20
70458;BME280;57919;56.194;95.716;2023-04-20T15:30:38;100120.56;;;-3.11;66.30
70458;BME280;57919;56.194;95.716;2023-04-20T15:40:40;100134.03;;;-3.25;67.07
70458;BME280;57919;56.194;95.716;2023-04-20T15:50:42;100140.53;;;-3.44;69.35
70458;BME280;57919;56.194;95.716;2023-04-20T16:00:44;100139.00;;;-3.58;69.69
70458;BME280;57919;56.194;95.716;2023-04-20T16:10:46;100158.59;;;-3.71;70.59
70458;BME280;57919;56.194;95.716;2023-04-20T16:20:49;100162.22;;;-3.78;70.06
70458;BME280;57919;56.194;95.716;2023-04-20T16:30:51;100170.41;;;-3.95;70.36
70458;BME280;57919;56.194;95.716;2023-04-20T16:40:53;100175.88;;;-4.07;69.72
70458;BME280;57919;56.194;95.716;2023-04-20T16:50:54;100186.66;;;-4.24;67.91
70458;BME280;57919;56.194;95.716;2023-04-20T17:00:56;100191.28;;;-4.41;69.21
70458;BME280;57919;56.194;95.716;2023-04-20T17:10:58;100204.56;;;-4.48;68.65
70458;BME280;57919;56.194;95.716;2023-04-20T17:21:02;100205.50;;;-4.54;69.70
70458;BME280;57919;56.194;95.716;2023-04-20T17:31:04;100213.69;;;-4.77;70.42
70458;BME280;57919;56.194;95.716;2023-04-20T17:41:06;100212.00;;;-4.84;69.68
70458;BME280;57919;56.194;95.716;2023-04-20T17:51:08;100220.81;;;-4.85;68.27
70458;BME280;57919;56.194;95.716;2023-04-20T18:01:09;100223.47;;;-4.90;67.28
70458;BME280;57919;56.194;95.716;2023-04-20T18:11:11;100222.63;;;-4.93;67.01
70458;BME280;57919;56.194;95.716;2023-04-20T18:21:14;100224.53;;;-5.09;66.88
70458;BME280;57919;56.194;95.716;2023-04-20T18:31:16;100227.34;;;-5.30;66.92
70458;BME280;57919;56.194;95.716;2023-04-20T18:41:18;100232.69;;;-5.36;66.70
70458;BME280;57919;56.194;95.716;2023-04-20T18:51:20;100227.44;;;-5.41;66.59
70458;BME280;57919;56.194;95.716;2023-04-20T19:01:23;100231.88;;;-5.46;66.71
70458;BME280;57919;56.194;95.716;2023-04-20T19:11:26;100216.16;;;-5.58;66.97
70458;BME280;57919;56.194;95.716;2023-04-20T19:21:29;100229.34;;;-5.60;67.77
70458;BME280;57919;56.194;95.716;2023-04-20T19:31:32;100232.94;;;-5.73;67.88
70458;BME280;57919;56.194;95.716;2023-04-20T19:41:38;100231.41;;;-6.04;69.55
70458;BME280;57919;56.194;95.716;2023-04-20T19:51:40;100228.84;;;-6.24;70.47
70458;BME280;57919;56.194;95.716;2023-04-20T20:01:41;100235.94;;;-6.38;71.74
70458;BME280;57919;56.194;95.716;2023-04-20T20:11:44;100238.59;;;-6.46;71.72
70458;BME280;57919;56.194;95.716;2023-04-20T20:21:50;100239.47;;;-6.45;72.35
70458;BME280;57919;56.194;95.716;2023-04-20T20:31:52;100239.47;;;-6.52;72.45
70458;BME280;57919;56.194;95.716;2023-04-20T20:41:53;100233.38;;;-6.61;73.22
70458;BME280;57919;56.194;95.716;2023-04-20T20:51:57;100236.91;;;-6.73;73.29
70458;BME280;57919;56.194;95.716;2023-04-20T21:01:59;100228.13;;;-6.70;72.26
70458;BME280;57919;56.194;95.716;2023-04-20T21:12:01;100241.31;;;-6.81;73.69
70458;BME280;57919;56.194;95.716;2023-04-20T21:22:03;100235.16;;;-6.72;73.68
70458;BME280;57919;56.194;95.716;2023-04-20T21:32:04;100225.50;;;-6.69;73.60
70458;BME280;57919;56.194;95.716;2023-04-20T21:42:06;100226.41;;;-6.79;74.23
70458;BME280;57919;56.194;95.716;2023-04-20T21:52:08;100217.66;;;-6.84;73.95
70458;BME280;57919;56.194;95.716;2023-04-20T22:02:10;100211.50;;;-6.86;74.67
70458;BME280;57919;56.194;95.716;2023-04-20T22:12:12;100215.00;;;-6.75;74.96
70458;BME280;57919;56.194;95.716;2023-04-20T22:22:14;100221.97;;;-6.59;75.13
70458;BME280;57919;56.194;95.716;2023-04-20T22:32:16;100194.78;;;-6.56;76.95
70458;BME280;57919;56.194;95.716;2023-04-20T22:42:17;100204.31;;;-6.28;76.67
70458;BME280;57919;56.194;95.716;2023-04-20T22:52:19;100210.31;;;-6.00;76.11
70458;BME280;57919;56.194;95.716;2023-04-20T23:02:21;100207.47;;;-5.74;76.00
70458;BME280;57919;56.194;95.716;2023-04-20T23:12:23;100207.41;;;-5.65;75.55
70458;BME280;57919;56.194;95.716;2023-04-20T23:22:26;100206.47;;;-5.56;75.60
70458;BME280;57919;56.194;95.716;2023-04-20T23:32:28;100208.31;;;-4.69;75.83
70458;BME280;57919;56.194;95.716;2023-04-20T23:42:30;100199.44;;;-3.92;73.44
70458;BME280;57919;56.194;95.716;2023-04-20T23:52:32;100201.13;;;-2.80;71.74
